createdAt,value
2017-11-12T00:01:21.827Z,5.60
2017-11-12T00:03:49.219Z,5.20
2017-11-12T00:08:56.540Z,7.07
2017-11-12T00:11:24.864Z,5.73
2017-11-12T00:13:52.417Z,6.40
2017-11-12T00:16:20.920Z,6.27
2017-11-12T00:18:48.648Z,6.70
2017-11-12T00:21:17.136Z,6.43
2017-11-12T00:23:45.770Z,5.53
2017-11-12T00:28:54.084Z,7.00
2017-11-12T00:31:22.705Z,5.60
2017-11-12T00:33:50.330Z,7.33
2017-11-12T00:36:18.037Z,7.27
2017-11-12T00:38:46.745Z,8.80
2017-11-12T00:41:15.190Z,7.53
2017-11-12T00:43:42.883Z,7.93
2017-11-12T00:46:10.672Z,8.50
2017-11-12T00:48:38.550Z,7.43
2017-11-12T00:51:06.239Z,7.83
2017-11-12T00:53:33.874Z,8.67
2017-11-12T00:56:01.507Z,7.93
2017-11-12T00:58:30.077Z,7.60
2017-11-12T01:00:57.691Z,7.53
2017-11-12T01:03:25.326Z,8.73
2017-11-12T01:05:53.047Z,7.83
2017-11-12T01:08:21.628Z,8.67
2017-11-12T01:10:49.276Z,9.23
2017-11-12T01:13:16.956Z,7.63
2017-11-12T01:15:45.778Z,7.47
2017-11-12T01:18:13.424Z,7.57
2017-11-12T01:20:41.156Z,7.47
2017-11-12T01:23:08.772Z,8.03
2017-11-12T01:25:37.258Z,8.03
2017-11-12T01:28:04.944Z,8.40
2017-11-12T01:30:32.581Z,8.30
2017-11-12T01:33:01.195Z,9.50
2017-11-12T01:35:28.908Z,9.10
2017-11-12T01:37:56.563Z,8.17
2017-11-12T01:40:24.163Z,7.87
2017-11-12T01:42:51.842Z,6.93
2017-11-12T01:45:19.466Z,7.60
2017-11-12T01:47:47.579Z,6.70
2017-11-12T01:50:16.045Z,7.47
2017-11-12T01:55:23.680Z,13.65
2017-11-12T01:57:52.157Z,8.50
2017-11-12T02:00:20.765Z,8.03
2017-11-12T02:02:48.491Z,8.53
2017-11-12T02:05:17.091Z,7.40
2017-11-12T02:07:45.671Z,8.37
2017-11-12T02:10:13.368Z,7.70
2017-11-12T02:12:41.005Z,8.03
2017-11-12T02:15:08.644Z,7.67
2017-11-12T02:17:36.358Z,10.20
2017-11-12T02:20:03.994Z,9.93
2017-11-12T02:22:32.465Z,10.83
2017-11-12T02:25:00.156Z,8.27
2017-11-12T02:27:27.784Z,8.13
2017-11-12T02:29:55.421Z,7.73
2017-11-12T02:32:23.966Z,8.13
2017-11-12T02:34:51.599Z,7.73
2017-11-12T02:37:19.222Z,7.37
2017-11-12T02:39:46.912Z,7.83
2017-11-12T02:42:15.503Z,7.47
2017-11-12T02:44:43.143Z,6.83
2017-11-12T02:47:11.812Z,7.03
2017-11-12T02:49:39.438Z,9.43
2017-11-12T02:52:07.064Z,9.37
2017-11-12T02:54:34.764Z,13.13
2017-11-12T02:57:02.377Z,8.33
2017-11-12T02:59:30.007Z,7.17
2017-11-12T03:01:57.711Z,7.73
2017-11-12T03:04:25.357Z,8.63
2017-11-12T03:06:52.999Z,9.33
2017-11-12T03:09:21.617Z,10.30
2017-11-12T03:11:49.246Z,9.77
2017-11-12T03:14:16.855Z,7.87
2017-11-12T03:16:44.551Z,5.87
2017-11-12T03:21:51.394Z,10.30
2017-11-12T03:24:19.020Z,6.83
2017-11-12T03:26:47.490Z,7.30
2017-11-12T03:29:16.127Z,7.90
2017-11-12T03:31:44.511Z,7.57
2017-11-12T03:34:12.140Z,6.70
2017-11-12T03:36:39.845Z,7.03
2017-11-12T03:39:07.480Z,5.90
2017-11-12T03:41:35.110Z,5.20
2017-11-12T03:44:03.667Z,4.47
2017-11-12T03:46:31.395Z,5.93
2017-11-12T03:48:59.420Z,5.27
2017-11-12T03:51:27.109Z,7.03
2017-11-12T03:53:54.750Z,6.30
2017-11-12T03:56:22.372Z,5.70
2017-11-12T03:58:50.065Z,5.83
2017-11-12T04:01:18.665Z,5.70
2017-11-12T04:03:46.280Z,6.97
2017-11-12T04:06:13.958Z,6.73
2017-11-12T04:08:41.573Z,4.77
2017-11-12T04:11:09.209Z,4.83
2017-11-12T04:13:36.905Z,4.93
2017-11-12T04:16:04.529Z,5.40
2017-11-12T04:18:33.146Z,6.10
2017-11-12T04:21:00.837Z,5.53
2017-11-12T04:23:28.460Z,6.27
2017-11-12T04:25:56.089Z,5.70
2017-11-12T04:28:24.797Z,5.43
2017-11-12T04:30:52.429Z,6.40
2017-11-12T04:33:20.055Z,5.93
2017-11-12T04:35:48.457Z,6.07
2017-11-12T04:38:16.074Z,5.00
2017-11-12T04:40:43.704Z,5.27
2017-11-12T04:43:11.408Z,5.13
2017-11-12T04:45:39.031Z,6.10
2017-11-12T04:50:46.665Z,3.75
2017-11-12T04:53:15.223Z,3.47
2017-11-12T04:55:42.860Z,4.30
2017-11-12T04:58:11.019Z,5.60
2017-11-12T05:00:39.641Z,5.23
2017-11-12T05:03:07.261Z,6.07
2017-11-12T05:05:34.949Z,7.07
2017-11-12T05:08:02.598Z,6.73
2017-11-12T05:10:30.240Z,7.43
2017-11-12T05:12:57.928Z,8.83
2017-11-12T05:15:25.562Z,7.17
2017-11-12T05:17:53.736Z,6.23
2017-11-12T05:20:21.415Z,5.47
2017-11-12T05:22:49.871Z,6.40
2017-11-12T05:25:18.045Z,5.60
2017-11-12T05:27:45.754Z,5.90
2017-11-12T05:30:13.415Z,6.43
2017-11-12T05:32:41.044Z,6.07
2017-11-12T05:35:08.734Z,4.77
2017-11-12T05:37:36.560Z,4.50
2017-11-12T05:40:04.075Z,5.30
2017-11-12T05:42:31.780Z,5.63
2017-11-12T05:44:59.404Z,5.67
2017-11-12T05:47:27.992Z,3.93
2017-11-12T05:49:55.688Z,4.37
2017-11-12T05:52:23.313Z,4.87
2017-11-12T05:54:51.865Z,4.40
2017-11-12T05:57:19.579Z,5.03
2017-11-12T05:59:48.562Z,4.93
2017-11-12T06:02:16.196Z,5.50
2017-11-12T06:04:44.711Z,5.47
2017-11-12T06:09:52.336Z,8.57
2017-11-12T06:12:19.964Z,2.43
2017-11-12T06:14:47.589Z,1.67
2017-11-12T06:17:16.126Z,0.70
2017-11-12T06:19:44.622Z,1.00
2017-11-12T06:22:12.233Z,1.60
2017-11-12T06:24:39.922Z,2.40
2017-11-12T06:27:08.390Z,3.13
2017-11-12T06:29:36.991Z,4.77
2017-11-12T06:32:04.681Z,4.90
2017-11-12T06:34:32.322Z,4.70
2017-11-12T06:36:59.945Z,4.07
2017-11-12T06:39:27.651Z,3.33
2017-11-12T06:41:55.257Z,3.00
2017-11-12T06:44:22.895Z,5.17
2017-11-12T06:46:50.639Z,6.00
2017-11-12T06:49:18.276Z,5.63
2017-11-12T06:51:45.894Z,5.63
2017-11-12T06:54:13.590Z,7.53
2017-11-12T06:56:41.221Z,8.03
2017-11-12T06:59:08.853Z,8.87
2017-11-12T07:01:36.574Z,8.67
2017-11-12T07:04:04.202Z,7.27
2017-11-12T07:06:31.840Z,8.53
2017-11-12T07:08:59.550Z,8.20
2017-11-12T07:11:28.042Z,10.63
2017-11-12T07:13:56.508Z,12.10
2017-11-12T07:16:24.210Z,26.43
2017-11-12T07:18:51.879Z,23.57
2017-11-12T07:21:19.527Z,17.40
2017-11-12T07:23:47.260Z,14.43
2017-11-12T07:26:15.898Z,12.17
2017-11-12T07:28:43.809Z,10.67
2017-11-12T07:31:11.517Z,8.47
2017-11-12T07:36:18.301Z,7.00
2017-11-12T07:38:45.927Z,6.40
2017-11-12T07:41:13.579Z,8.57
2017-11-12T07:43:41.295Z,9.47
2017-11-12T07:46:08.926Z,7.77
2017-11-12T07:48:36.562Z,7.03
2017-11-12T07:51:04.257Z,6.90
2017-11-12T07:53:31.894Z,6.27
2017-11-12T07:55:59.536Z,7.07
2017-11-12T07:58:27.230Z,7.27
2017-11-12T08:00:54.882Z,7.10
2017-11-12T08:03:23.512Z,8.30
2017-11-12T08:05:51.156Z,5.80
2017-11-12T08:08:19.619Z,6.70
2017-11-12T08:10:48.190Z,8.53
2017-11-12T08:13:15.881Z,9.13
2017-11-12T08:15:43.508Z,7.10
2017-11-12T08:18:11.174Z,7.50
2017-11-12T08:20:38.874Z,7.30
2017-11-12T08:23:06.496Z,6.57
2017-11-12T08:25:34.143Z,7.30
2017-11-12T08:28:01.879Z,11.97
2017-11-12T08:30:29.525Z,14.63
2017-11-12T08:32:57.180Z,9.53
2017-11-12T08:35:24.881Z,7.23
2017-11-12T08:40:33.091Z,5.40
2017-11-12T08:43:00.734Z,5.50
2017-11-12T08:45:28.363Z,6.53
2017-11-12T08:47:56.049Z,7.20
2017-11-12T08:50:23.805Z,7.73
2017-11-12T08:52:51.340Z,7.03
2017-11-12T08:55:19.849Z,7.80
2017-11-12T08:57:47.482Z,6.90
2017-11-12T09:00:15.098Z,7.13
2017-11-12T09:02:42.812Z,7.90
2017-11-12T09:05:10.429Z,6.87
2017-11-12T09:07:38.061Z,6.07
2017-11-12T09:10:05.744Z,5.23
2017-11-12T09:12:34.346Z,5.07
2017-11-12T09:15:01.975Z,4.90
2017-11-12T09:17:30.649Z,4.40
2017-11-12T09:19:58.286Z,3.80
2017-11-12T09:22:25.917Z,4.90
2017-11-12T09:24:53.609Z,4.07
2017-11-12T09:27:21.225Z,3.87
2017-11-12T09:29:49.807Z,3.43
2017-11-12T09:32:17.952Z,4.80
2017-11-12T09:34:45.569Z,4.90
2017-11-12T09:37:13.202Z,4.77
2017-11-12T09:39:40.907Z,3.70
2017-11-12T09:42:09.341Z,3.93
2017-11-12T09:44:37.126Z,4.47
2017-11-12T09:47:04.693Z,5.27
2017-11-12T09:49:32.913Z,4.50
2017-11-12T09:52:00.547Z,2.47
2017-11-12T09:54:28.245Z,3.40
2017-11-12T09:56:56.405Z,4.00
2017-11-12T09:59:24.036Z,4.50
2017-11-12T10:01:52.688Z,4.13
2017-11-12T10:04:21.270Z,3.77
2017-11-12T10:09:25.060Z,5.32
2017-11-12T10:11:52.682Z,4.87
2017-11-12T10:14:20.314Z,4.70
2017-11-12T10:16:47.998Z,5.23
2017-11-12T10:19:15.893Z,5.17
2017-11-12T10:21:43.512Z,5.00
2017-11-12T10:24:11.226Z,5.07
2017-11-12T10:26:39.673Z,4.80
2017-11-12T10:29:07.286Z,3.70
2017-11-12T10:31:34.974Z,4.57
2017-11-12T10:34:02.607Z,4.10
2017-11-12T10:36:30.226Z,3.60
2017-11-12T10:38:57.932Z,3.77
2017-11-12T10:41:25.561Z,3.80
2017-11-12T10:43:53.179Z,3.67
2017-11-12T10:46:20.866Z,3.77
2017-11-12T10:48:48.524Z,3.80
2017-11-12T10:51:16.136Z,4.03
2017-11-12T10:53:43.846Z,3.70
2017-11-12T10:56:11.477Z,3.40
2017-11-12T10:58:39.957Z,2.43
2017-11-12T11:01:07.648Z,3.20
2017-11-12T11:03:35.289Z,2.90
2017-11-12T11:06:02.918Z,3.33
2017-11-12T11:08:31.150Z,11.93
2017-11-12T11:10:58.781Z,3.97
2017-11-12T11:13:26.418Z,4.50
2017-11-12T11:15:54.112Z,5.30
2017-11-12T11:18:21.745Z,6.30
2017-11-12T11:20:49.386Z,5.27
2017-11-12T11:23:17.068Z,4.83
2017-11-12T11:25:44.698Z,3.37
2017-11-12T11:28:12.345Z,2.47
2017-11-12T11:30:40.041Z,2.80
2017-11-12T11:35:48.955Z,3.75
2017-11-12T11:38:17.323Z,3.27
2017-11-12T11:40:44.965Z,3.17
2017-11-12T11:43:12.616Z,3.20
2017-11-12T11:45:40.507Z,2.80
2017-11-12T11:48:08.136Z,3.07
2017-11-12T11:50:35.851Z,3.43
2017-11-12T11:53:03.484Z,2.77
2017-11-12T11:55:31.215Z,2.73
2017-11-12T11:57:58.826Z,4.30
2017-11-12T12:00:26.459Z,3.07
2017-11-12T12:02:54.090Z,3.10
2017-11-12T12:05:26.887Z,3.10
2017-11-12T12:07:54.873Z,2.70
2017-11-12T12:10:22.504Z,2.80
2017-11-12T12:12:50.202Z,2.97
2017-11-12T12:15:17.833Z,2.90
2017-11-12T12:17:45.481Z,3.40
2017-11-12T12:20:13.207Z,3.73
2017-11-12T12:22:40.838Z,2.73
2017-11-12T12:25:08.467Z,2.97
2017-11-12T12:27:36.174Z,3.07
2017-11-12T12:30:03.818Z,3.07
2017-11-12T12:32:31.958Z,3.47
2017-11-12T12:35:00.320Z,2.57
2017-11-12T12:37:27.950Z,2.67
2017-11-12T12:39:56.443Z,2.77
2017-11-12T12:42:24.154Z,2.77
2017-11-12T12:44:51.769Z,3.00
2017-11-12T12:47:19.388Z,2.60
2017-11-12T12:52:26.216Z,2.80
2017-11-12T12:54:53.928Z,2.57
2017-11-12T12:57:21.556Z,3.50
2017-11-12T12:59:49.199Z,3.47
2017-11-12T13:02:16.902Z,2.70
2017-11-12T13:04:44.521Z,2.67
2017-11-12T13:07:12.642Z,1.70
2017-11-12T13:09:41.238Z,2.30
2017-11-12T13:12:08.845Z,2.40
2017-11-12T13:14:37.369Z,2.80
2017-11-12T13:17:05.537Z,3.13
2017-11-12T13:19:33.163Z,3.07
2017-11-12T13:22:00.802Z,2.67
2017-11-12T13:24:29.328Z,2.70
2017-11-12T13:26:56.971Z,3.03
2017-11-12T13:29:24.586Z,3.40
2017-11-12T13:31:52.300Z,3.33
2017-11-12T13:34:19.927Z,3.10
2017-11-12T13:36:47.550Z,3.00
2017-11-12T13:39:15.262Z,2.97
2017-11-12T13:41:43.706Z,4.43
2017-11-12T13:44:11.350Z,4.50
2017-11-12T13:46:39.030Z,4.33
2017-11-12T13:49:06.659Z,4.03
2017-11-12T13:51:34.310Z,4.50
2017-11-12T13:54:03.957Z,4.70
2017-11-12T13:56:31.584Z,4.17
2017-11-12T13:58:59.946Z,3.30
2017-11-12T14:01:27.645Z,3.47
2017-11-12T14:03:55.277Z,3.73
2017-11-12T14:06:22.914Z,2.80
2017-11-12T14:11:32.687Z,3.60
2017-11-12T14:14:00.373Z,3.73
2017-11-12T14:16:28.004Z,4.00
2017-11-12T14:18:56.490Z,3.40
2017-11-12T14:21:24.692Z,2.80
2017-11-12T14:23:52.316Z,3.47
2017-11-12T14:26:19.965Z,5.23
2017-11-12T14:28:47.666Z,4.73
2017-11-12T14:31:15.331Z,4.20
2017-11-12T14:33:42.964Z,4.23
2017-11-12T14:36:11.514Z,3.80
2017-11-12T14:38:40.016Z,3.93
2017-11-12T14:41:07.850Z,4.53
2017-11-12T14:43:35.514Z,4.40
2017-11-12T14:46:03.144Z,5.00
2017-11-12T14:50:54.715Z,5.47
2017-11-12T14:53:23.162Z,5.50
2017-11-12T14:55:50.796Z,6.97
2017-11-12T14:58:18.489Z,7.97
2017-11-12T15:00:46.136Z,4.83
2017-11-12T15:03:14.729Z,3.77
2017-11-12T15:05:42.429Z,3.93
2017-11-12T15:08:11.044Z,5.00
2017-11-12T15:10:38.676Z,2.93
2017-11-12T15:13:06.346Z,3.80
2017-11-12T15:15:34.640Z,3.80
2017-11-12T15:18:02.262Z,6.70
2017-11-12T15:20:29.971Z,4.20
2017-11-12T15:22:57.603Z,10.57
2017-11-12T15:25:26.041Z,2.40
2017-11-12T15:27:53.745Z,2.30
2017-11-12T15:30:21.364Z,1.57
2017-11-12T15:32:49.007Z,1.90
2017-11-12T15:35:16.712Z,2.23
2017-11-12T15:37:44.347Z,2.43
2017-11-12T15:40:11.969Z,2.27
2017-11-12T15:42:39.671Z,2.37
2017-11-12T15:45:07.297Z,5.70
2017-11-12T15:47:34.965Z,2.30
2017-11-12T15:50:02.681Z,13.10
2017-11-12T15:52:30.305Z,8.87
2017-11-12T15:54:57.941Z,2.53
2017-11-12T15:57:25.677Z,2.17
2017-11-12T15:59:53.308Z,14.67
2017-11-12T16:02:20.956Z,3.00
2017-11-12T16:04:48.647Z,3.77
2017-11-12T16:09:56.369Z,6.00
2017-11-12T16:12:23.997Z,3.20
2017-11-12T16:14:51.630Z,2.10
2017-11-12T16:17:19.337Z,2.13
2017-11-12T16:19:46.960Z,2.10
2017-11-12T16:22:15.449Z,2.00
2017-11-12T16:24:43.141Z,2.07
2017-11-12T16:27:10.769Z,2.43
2017-11-12T16:29:38.400Z,2.20
2017-11-12T16:32:06.111Z,2.23
2017-11-12T16:34:33.757Z,2.43
2017-11-12T16:37:01.380Z,2.00
2017-11-12T16:39:29.930Z,1.57
2017-11-12T16:41:57.555Z,2.10
2017-11-12T16:44:25.177Z,2.30
2017-11-12T16:46:52.859Z,1.70
2017-11-12T16:49:20.489Z,2.10
2017-11-12T16:51:48.203Z,1.43
2017-11-12T16:54:16.321Z,2.60
2017-11-12T16:56:43.952Z,2.80
2017-11-12T16:59:11.575Z,4.03
2017-11-12T17:01:39.261Z,6.30
2017-11-12T17:04:06.888Z,2.40
2017-11-12T17:06:34.518Z,2.57
2017-11-12T17:09:02.207Z,3.10
2017-11-12T17:11:29.837Z,5.90
2017-11-12T17:13:57.465Z,5.77
2017-11-12T17:16:25.161Z,1.67
2017-11-12T17:18:52.792Z,2.37
2017-11-12T17:21:21.238Z,0.50
2017-11-12T17:23:48.933Z,0.30
2017-11-12T17:26:16.576Z,0.70
2017-11-12T17:28:44.197Z,0.80
2017-11-12T17:31:11.894Z,0.40
2017-11-12T17:33:40.351Z,0.10
2017-11-12T17:38:48.002Z,0.10
2017-11-12T17:41:15.631Z,0.00
2017-11-12T17:43:43.254Z,0.10
2017-11-12T17:46:12.066Z,0.07
2017-11-12T17:48:41.735Z,0.10
2017-11-12T17:51:09.326Z,0.10
2017-11-12T17:53:37.016Z,0.20
2017-11-12T17:56:04.659Z,0.20
2017-11-12T17:58:32.278Z,0.20
2017-11-12T18:00:59.976Z,0.10
2017-11-12T18:03:27.597Z,0.20
2017-11-12T18:05:55.226Z,0.10
2017-11-12T18:08:22.922Z,0.30
2017-11-12T18:10:50.587Z,0.17
2017-11-12T18:13:18.203Z,0.10
2017-11-12T18:15:45.900Z,0.20
2017-11-12T18:18:13.522Z,0.50
2017-11-12T18:20:42.009Z,0.30
2017-11-12T18:23:09.715Z,0.40
2017-11-12T18:25:37.332Z,0.70
2017-11-12T18:28:04.963Z,0.20
2017-11-12T18:30:32.665Z,0.30
2017-11-12T18:33:00.313Z,0.20
2017-11-12T18:35:28.003Z,0.60
2017-11-12T18:37:55.713Z,0.30
2017-11-12T18:40:24.163Z,1.60
2017-11-12T18:42:51.776Z,0.30
2017-11-12T18:47:58.581Z,0.62
2017-11-12T18:50:26.274Z,0.70
2017-11-12T18:52:53.922Z,1.00
2017-11-12T19:08:51.845Z,0.20
2017-11-12T19:11:19.618Z,0.30
2017-11-12T19:13:47.256Z,0.50
2017-11-12T19:16:14.984Z,0.30
2017-11-12T19:32:05.389Z,1.60
2017-11-12T19:34:33.042Z,1.07
2017-11-12T19:37:00.747Z,0.70
2017-11-12T19:39:28.469Z,0.67
2017-11-12T19:41:56.073Z,1.00
2017-11-12T19:44:23.689Z,1.50
2017-11-12T19:46:51.390Z,1.40
2017-11-12T19:49:19.028Z,1.00
2017-11-12T19:51:46.662Z,0.50
2017-11-12T19:54:14.473Z,1.00
2017-11-12T19:56:42.121Z,0.90
2017-11-12T19:59:09.776Z,1.20
2017-11-12T20:01:37.487Z,1.23
2017-11-12T20:04:05.156Z,1.40
2017-11-12T20:06:32.792Z,1.10
2017-11-12T20:09:00.956Z,2.50
2017-11-12T20:11:31.880Z,1.50
2017-11-12T20:13:58.392Z,0.80
2017-11-12T20:16:26.090Z,0.50
2017-11-12T20:18:53.850Z,0.50
2017-11-12T20:21:21.464Z,0.30
2017-11-12T20:23:49.175Z,0.50
2017-11-12T20:26:16.859Z,0.80
2017-11-12T20:28:44.482Z,0.60
2017-11-12T20:31:12.343Z,0.40
2017-11-12T20:33:40.158Z,0.30
2017-11-12T20:36:10.808Z,0.30
2017-11-12T20:38:35.955Z,0.20
2017-11-12T20:41:03.908Z,0.50
2017-11-12T20:43:31.810Z,0.50
2017-11-12T20:45:59.555Z,0.80
2017-11-12T20:51:06.868Z,1.25
2017-11-12T20:53:34.340Z,1.00
2017-11-12T20:56:02.053Z,1.73
2017-11-12T20:58:29.771Z,2.00
2017-11-12T21:00:57.554Z,1.90
2017-11-12T21:03:25.216Z,1.77
2017-11-12T21:08:33.762Z,2.40
2017-11-12T21:11:01.643Z,1.60
2017-11-12T21:13:29.845Z,1.90
2017-11-12T21:15:57.682Z,2.20
2017-11-12T21:18:25.497Z,1.90
2017-11-12T21:23:31.905Z,2.50
2017-11-12T21:25:59.895Z,2.17
2017-11-12T21:39:13.447Z,1.10
2017-11-12T21:41:41.088Z,0.90
2017-11-12T21:44:09.240Z,1.20
2017-11-12T21:46:36.934Z,1.30
2017-11-12T21:49:04.602Z,1.00
2017-11-12T21:51:32.238Z,1.07
2017-11-12T21:53:59.974Z,1.00
2017-11-12T21:56:27.594Z,0.53
2017-11-12T21:58:55.236Z,0.77
2017-11-12T22:01:22.932Z,1.00
2017-11-12T22:03:50.570Z,0.60
2017-11-12T22:06:18.583Z,0.47
2017-11-12T22:08:46.279Z,0.20
2017-11-12T22:11:13.905Z,0.30
2017-11-12T22:13:41.542Z,0.47
2017-11-12T22:16:09.250Z,0.30
2017-11-12T22:18:36.885Z,0.60
2017-11-12T22:21:04.540Z,0.40
2017-11-12T22:23:32.236Z,0.30
2017-11-12T22:25:59.866Z,0.30
2017-11-12T22:28:27.540Z,0.47
2017-11-12T22:30:55.220Z,0.50
2017-11-12T22:33:23.358Z,0.60
2017-11-12T22:35:50.979Z,0.40
2017-11-12T22:38:18.690Z,0.40
2017-11-12T22:40:46.355Z,0.20
2017-11-12T22:43:14.000Z,0.50
2017-11-12T22:45:41.740Z,0.50
2017-11-12T22:48:09.411Z,0.60
2017-11-12T22:50:37.020Z,0.50
2017-11-12T22:53:04.833Z,0.40
2017-11-12T22:55:32.594Z,0.40
2017-11-12T23:00:42.684Z,0.40
2017-11-12T23:03:10.307Z,0.60
2017-11-12T23:05:43.133Z,0.30
2017-11-12T23:08:10.837Z,0.30
2017-11-12T23:10:39.609Z,0.50
2017-11-12T23:13:07.265Z,0.30
2017-11-12T23:15:34.970Z,0.33
2017-11-12T23:18:02.600Z,0.30
2017-11-12T23:20:31.556Z,0.50
2017-11-12T23:23:00.090Z,0.50
2017-11-12T23:25:28.082Z,0.50
2017-11-12T23:27:56.995Z,0.63
2017-11-12T23:30:24.487Z,0.30
2017-11-12T23:32:52.109Z,0.50
2017-11-12T23:35:21.078Z,0.30
2017-11-12T23:37:48.676Z,0.43
2017-11-12T23:40:16.310Z,0.30
2017-11-12T23:42:43.921Z,0.40
2017-11-12T23:45:12.780Z,0.30
2017-11-12T23:47:40.816Z,0.30
2017-11-12T23:50:08.932Z,0.17
2017-11-12T23:52:37.159Z,0.40
2017-11-12T23:55:04.824Z,0.23
2017-11-12T23:57:33.773Z,0.20
